THY3VP LTFM-LOWS
Flight info
| Callsign | THY3VP |
|---|---|
| Flight time | 1h 54m |
| Altitude | 38000 |
| Route | VADEN N618 BAKLO DCT XANEX DCT BESLI DCT UTEKA DCT BABIT DCT NOHAT DCT GOTAR DCT ABRUK DCT NUBRA |
| Aircraft | B738/M-SDE2E3FGHIRWXY/LB1 |
Departure
| Time | 2026-05-06 09:07 |
|---|---|
| Airport | İstanbul Airport (LTFM) |
Arrival
| Time | 2026-05-06 11:01 |
|---|---|
| Airport | Salzburg Airport (LOWS) |
| Time | Latitude | Longitude | Altitude | Speed | Heading |
|---|---|---|---|---|---|
| 2026-05-06 08:48 | 41.26558 | 28.73800 | 330 ft | 0 kts | 269° |
| 2026-05-06 08:56 | 41.26558 | 28.73817 | 329 ft | 2 kts | 269° |
| 2026-05-06 08:56 | 41.26558 | 28.73838 | 332 ft | 2 kts | 268° |
| 2026-05-06 08:56 | 41.26559 | 28.73860 | 330 ft | 2 kts | 288° |
| 2026-05-06 08:56 | 41.26549 | 28.73877 | 329 ft | 2 kts | 335° |
| 2026-05-06 08:57 | 41.26537 | 28.73882 | 331 ft | 1 kts | 346° |
| 2026-05-06 08:57 | 41.26536 | 28.73883 | 331 ft | 0 kts | 346° |
| 2026-05-06 08:59 | 41.26537 | 28.73882 | 331 ft | 1 kts | 346° |
| 2026-05-06 09:00 | 41.26547 | 28.73881 | 333 ft | 2 kts | 354° |
| 2026-05-06 09:00 | 41.26562 | 28.73879 | 330 ft | 2 kts | 358° |
| 2026-05-06 09:00 | 41.26590 | 28.73879 | 329 ft | 6 kts | 359° |
| 2026-05-06 09:00 | 41.26647 | 28.73877 | 332 ft | 10 kts | 359° |
| 2026-05-06 09:01 | 41.26727 | 28.73875 | 332 ft | 13 kts | 359° |
| 2026-05-06 09:01 | 41.26822 | 28.73873 | 331 ft | 14 kts | 359° |
| 2026-05-06 09:01 | 41.26918 | 28.73871 | 330 ft | 11 kts | 357° |
| 2026-05-06 09:01 | 41.26965 | 28.73806 | 332 ft | 11 kts | 271° |
| 2026-05-06 09:02 | 41.26962 | 28.73703 | 333 ft | 11 kts | 268° |
| 2026-05-06 09:02 | 41.26960 | 28.73604 | 333 ft | 11 kts | 269° |
| 2026-05-06 09:02 | 41.26960 | 28.73507 | 333 ft | 10 kts | 269° |
| 2026-05-06 09:02 | 41.26956 | 28.73412 | 331 ft | 10 kts | 266° |
| 2026-05-06 09:03 | 41.26956 | 28.73321 | 333 ft | 10 kts | 270° |
| 2026-05-06 09:03 | 41.26955 | 28.73231 | 333 ft | 10 kts | 269° |
| 2026-05-06 09:03 | 41.26954 | 28.73144 | 333 ft | 9 kts | 269° |
| 2026-05-06 09:03 | 41.26953 | 28.73059 | 333 ft | 9 kts | 269° |
| 2026-05-06 09:04 | 41.26924 | 28.72992 | 331 ft | 9 kts | 198° |
| 2026-05-06 09:04 | 41.26860 | 28.72990 | 333 ft | 10 kts | 179° |
| 2026-05-06 09:04 | 41.26791 | 28.72991 | 331 ft | 10 kts | 179° |
| 2026-05-06 09:04 | 41.26724 | 28.72992 | 330 ft | 10 kts | 179° |
| 2026-05-06 09:05 | 41.26659 | 28.72994 | 333 ft | 9 kts | 179° |
| 2026-05-06 09:05 | 41.26602 | 28.72968 | 332 ft | 9 kts | 234° |
| 2026-05-06 09:05 | 41.26595 | 28.72886 | 332 ft | 9 kts | 268° |
| 2026-05-06 09:05 | 41.26593 | 28.72806 | 333 ft | 9 kts | 270° |
| 2026-05-06 09:06 | 41.26636 | 28.72767 | 332 ft | 9 kts | 358° |
| 2026-05-06 09:06 | 41.26776 | 28.72765 | 333 ft | 49 kts | 359° |
| 2026-05-06 09:06 | 41.27356 | 28.72751 | 333 ft | 116 kts | 359° |
| 2026-05-06 09:06 | 41.28338 | 28.72729 | 487 ft | 154 kts | 2° |
| 2026-05-06 09:07 | 41.29462 | 28.72687 | 1008 ft | 173 kts | 359° |
| 2026-05-06 09:07 | 41.30687 | 28.72657 | 1703 ft | 181 kts | 359° |
| 2026-05-06 09:07 | 41.31963 | 28.72621 | 2381 ft | 188 kts | 358° |
| 2026-05-06 09:07 | 41.33296 | 28.72589 | 3012 ft | 199 kts | 359° |
| 2026-05-06 09:08 | 41.34738 | 28.72561 | 3354 ft | 215 kts | 358° |
| 2026-05-06 09:08 | 41.36266 | 28.72534 | 3697 ft | 230 kts | 357° |
| 2026-05-06 09:08 | 41.37839 | 28.72055 | 4120 ft | 240 kts | 333° |
| 2026-05-06 09:08 | 41.39148 | 28.70538 | 4473 ft | 259 kts | 308° |
| 2026-05-06 09:09 | 41.40155 | 28.68541 | 5355 ft | 258 kts | 303° |
| 2026-05-06 09:09 | 41.41073 | 28.66485 | 6199 ft | 259 kts | 303° |
| 2026-05-06 09:09 | 41.41989 | 28.64395 | 6936 ft | 263 kts | 304° |
| 2026-05-06 09:09 | 41.42921 | 28.62276 | 7667 ft | 267 kts | 304° |
| 2026-05-06 09:10 | 41.43868 | 28.60137 | 8398 ft | 270 kts | 304° |
| 2026-05-06 09:10 | 41.44830 | 28.57974 | 9133 ft | 274 kts | 304° |
| 2026-05-06 09:10 | 41.45811 | 28.55778 | 9859 ft | 277 kts | 304° |
| 2026-05-06 09:10 | 41.46801 | 28.53570 | 10386 ft | 288 kts | 304° |
| 2026-05-06 09:11 | 41.47870 | 28.51191 | 10559 ft | 310 kts | 305° |
| 2026-05-06 09:11 | 41.49017 | 28.48644 | 10733 ft | 331 kts | 304° |
| 2026-05-06 09:11 | 41.50224 | 28.45953 | 11116 ft | 343 kts | 304° |
| 2026-05-06 09:11 | 41.51454 | 28.43202 | 11705 ft | 348 kts | 303° |
| 2026-05-06 09:12 | 41.52698 | 28.40417 | 12406 ft | 351 kts | 303° |
| 2026-05-06 09:12 | 41.53956 | 28.37603 | 13060 ft | 355 kts | 303° |
| 2026-05-06 09:12 | 41.55228 | 28.34760 | 13761 ft | 359 kts | 303° |
| 2026-05-06 09:12 | 41.56497 | 28.31919 | 14397 ft | 363 kts | 303° |
| 2026-05-06 09:13 | 41.57792 | 28.29016 | 15083 ft | 365 kts | 303° |
| 2026-05-06 09:13 | 41.59008 | 28.26029 | 15773 ft | 368 kts | 300° |
| 2026-05-06 09:13 | 41.60159 | 28.22962 | 16455 ft | 370 kts | 299° |
| 2026-05-06 09:13 | 41.61299 | 28.19864 | 17140 ft | 373 kts | 299° |
| 2026-05-06 09:14 | 41.62455 | 28.16741 | 17779 ft | 377 kts | 299° |
| 2026-05-06 09:14 | 41.63630 | 28.13591 | 18414 ft | 380 kts | 300° |
| 2026-05-06 09:14 | 41.64821 | 28.10419 | 18958 ft | 383 kts | 300° |
| 2026-05-06 09:14 | 41.66024 | 28.07224 | 19508 ft | 386 kts | 299° |
| 2026-05-06 09:15 | 41.67221 | 28.04046 | 20045 ft | 389 kts | 299° |
| 2026-05-06 09:15 | 41.68514 | 28.00859 | 20573 ft | 391 kts | 303° |
| 2026-05-06 09:15 | 41.69933 | 27.97851 | 21082 ft | 393 kts | 305° |
| 2026-05-06 09:15 | 41.71453 | 27.94793 | 21593 ft | 396 kts | 306° |
| 2026-05-06 09:16 | 41.72995 | 27.91719 | 22084 ft | 400 kts | 306° |
| 2026-05-06 09:16 | 41.74544 | 27.88608 | 22584 ft | 403 kts | 305° |
| 2026-05-06 09:16 | 41.76091 | 27.85465 | 23073 ft | 406 kts | 305° |
| 2026-05-06 09:16 | 41.77641 | 27.82286 | 23546 ft | 409 kts | 304° |
| 2026-05-06 09:17 | 41.79174 | 27.79119 | 23974 ft | 412 kts | 304° |
| 2026-05-06 09:17 | 41.80731 | 27.75888 | 24403 ft | 413 kts | 304° |
| 2026-05-06 09:17 | 41.82291 | 27.72644 | 24826 ft | 415 kts | 304° |
| 2026-05-06 09:17 | 41.83849 | 27.69395 | 25359 ft | 413 kts | 304° |
| 2026-05-06 09:18 | 41.85405 | 27.66150 | 25780 ft | 415 kts | 304° |
| 2026-05-06 09:18 | 41.86971 | 27.62880 | 26117 ft | 418 kts | 305° |
| 2026-05-06 09:18 | 41.88547 | 27.59588 | 26445 ft | 421 kts | 305° |
| 2026-05-06 09:18 | 41.90129 | 27.56278 | 26834 ft | 422 kts | 305° |
| 2026-05-06 09:19 | 41.91694 | 27.53001 | 27210 ft | 424 kts | 305° |
| 2026-05-06 09:19 | 41.93286 | 27.49663 | 27559 ft | 426 kts | 305° |
| 2026-05-06 09:19 | 41.94888 | 27.46302 | 27884 ft | 427 kts | 305° |
| 2026-05-06 09:19 | 41.96490 | 27.42935 | 28295 ft | 428 kts | 305° |
| 2026-05-06 09:20 | 41.98091 | 27.39567 | 28635 ft | 429 kts | 305° |
| 2026-05-06 09:20 | 41.99706 | 27.36165 | 28890 ft | 433 kts | 305° |
| 2026-05-06 09:20 | 42.01328 | 27.32746 | 29143 ft | 436 kts | 305° |
| 2026-05-06 09:20 | 42.02962 | 27.29297 | 29475 ft | 437 kts | 305° |
| 2026-05-06 09:21 | 42.04572 | 27.25895 | 29890 ft | 436 kts | 305° |
| 2026-05-06 09:21 | 42.06193 | 27.22467 | 30382 ft | 433 kts | 305° |
| 2026-05-06 09:21 | 42.07954 | 27.19212 | 30757 ft | 428 kts | 312° |
| 2026-05-06 09:21 | 42.09920 | 27.16206 | 31131 ft | 427 kts | 314° |
| 2026-05-06 09:22 | 42.11934 | 27.13278 | 31436 ft | 426 kts | 315° |
| 2026-05-06 09:22 | 42.13959 | 27.10356 | 31772 ft | 426 kts | 315° |
| 2026-05-06 09:22 | 42.15966 | 27.07431 | 32138 ft | 424 kts | 314° |
| 2026-05-06 09:22 | 42.17929 | 27.04532 | 32491 ft | 423 kts | 314° |
| 2026-05-06 09:23 | 42.19900 | 27.01591 | 32810 ft | 423 kts | 314° |
| 2026-05-06 09:23 | 42.21818 | 26.98707 | 33128 ft | 422 kts | 313° |
| 2026-05-06 09:23 | 42.23770 | 26.95759 | 33485 ft | 420 kts | 313° |
| 2026-05-06 09:23 | 42.25710 | 26.92820 | 33867 ft | 418 kts | 313° |
| 2026-05-06 09:24 | 42.27641 | 26.89893 | 34162 ft | 418 kts | 313° |
| 2026-05-06 09:24 | 42.29574 | 26.86960 | 34378 ft | 419 kts | 313° |
| 2026-05-06 09:24 | 42.31511 | 26.84019 | 34571 ft | 420 kts | 313° |
| 2026-05-06 09:24 | 42.33429 | 26.81105 | 34771 ft | 421 kts | 313° |
| 2026-05-06 09:25 | 42.35375 | 26.78146 | 34958 ft | 422 kts | 313° |
| 2026-05-06 09:25 | 42.37321 | 26.75183 | 35198 ft | 421 kts | 313° |
| 2026-05-06 09:25 | 42.39264 | 26.72221 | 35432 ft | 421 kts | 313° |
| 2026-05-06 09:25 | 42.41204 | 26.69261 | 35655 ft | 421 kts | 313° |
| 2026-05-06 09:26 | 42.43150 | 26.66290 | 35839 ft | 422 kts | 313° |
| 2026-05-06 09:26 | 42.45091 | 26.63322 | 36042 ft | 421 kts | 313° |
| 2026-05-06 09:26 | 42.47034 | 26.60349 | 36254 ft | 422 kts | 313° |
| 2026-05-06 09:26 | 42.48978 | 26.57371 | 36444 ft | 422 kts | 313° |
| 2026-05-06 09:27 | 42.50897 | 26.54430 | 36641 ft | 422 kts | 313° |
| 2026-05-06 09:27 | 42.52841 | 26.51446 | 36851 ft | 422 kts | 312° |
| 2026-05-06 09:27 | 42.54662 | 26.48318 | 37043 ft | 423 kts | 305° |
| 2026-05-06 09:27 | 42.56129 | 26.44848 | 37261 ft | 424 kts | 300° |
| 2026-05-06 09:28 | 42.57509 | 26.41312 | 37456 ft | 424 kts | 300° |
| 2026-05-06 09:28 | 42.58882 | 26.37766 | 37618 ft | 425 kts | 300° |
| 2026-05-06 09:28 | 42.60259 | 26.34218 | 37797 ft | 425 kts | 300° |
| 2026-05-06 09:28 | 42.61639 | 26.30674 | 37989 ft | 424 kts | 300° |
| 2026-05-06 09:29 | 42.63006 | 26.27178 | 38066 ft | 426 kts | 300° |
| 2026-05-06 09:29 | 42.65800 | 26.20053 | 38045 ft | 427 kts | 300° |
| 2026-05-06 09:30 | 42.68572 | 26.12981 | 38047 ft | 421 kts | 300° |
| 2026-05-06 09:30 | 42.71308 | 26.05986 | 38046 ft | 418 kts | 300° |
| 2026-05-06 09:31 | 42.73971 | 25.99161 | 38048 ft | 418 kts | 300° |
| 2026-05-06 09:31 | 42.76712 | 25.92123 | 38047 ft | 424 kts | 300° |
| 2026-05-06 09:32 | 42.79476 | 25.85006 | 38039 ft | 426 kts | 300° |
| 2026-05-06 09:32 | 42.82249 | 25.77844 | 38035 ft | 428 kts | 300° |
| 2026-05-06 09:33 | 42.85024 | 25.70659 | 38027 ft | 428 kts | 300° |
| 2026-05-06 09:33 | 42.87771 | 25.63530 | 38018 ft | 428 kts | 300° |
| 2026-05-06 09:34 | 42.90527 | 25.56360 | 38023 ft | 426 kts | 300° |
| 2026-05-06 09:34 | 42.93269 | 25.49208 | 38018 ft | 425 kts | 300° |
| 2026-05-06 09:35 | 42.95997 | 25.42073 | 38029 ft | 423 kts | 300° |
| 2026-05-06 09:35 | 42.98689 | 25.35016 | 38033 ft | 422 kts | 300° |
| 2026-05-06 09:36 | 43.01389 | 25.27922 | 38016 ft | 420 kts | 300° |
| 2026-05-06 09:36 | 43.04076 | 25.20844 | 38020 ft | 419 kts | 299° |
| 2026-05-06 09:37 | 43.06752 | 25.13776 | 38023 ft | 418 kts | 299° |
| 2026-05-06 09:37 | 43.09407 | 25.06746 | 38027 ft | 418 kts | 299° |
| 2026-05-06 09:38 | 43.12037 | 24.99768 | 38009 ft | 418 kts | 299° |
| 2026-05-06 09:38 | 43.14421 | 24.92494 | 38022 ft | 419 kts | 294° |
| 2026-05-06 09:39 | 43.16574 | 24.85062 | 38003 ft | 420 kts | 294° |
| 2026-05-06 09:39 | 43.18710 | 24.77672 | 37997 ft | 420 kts | 294° |
| 2026-05-06 09:40 | 43.20874 | 24.70253 | 38015 ft | 419 kts | 294° |
| 2026-05-06 09:40 | 43.24125 | 24.59127 | 38014 ft | 419 kts | 294° |
| 2026-05-06 09:41 | 43.26285 | 24.51714 | 38010 ft | 419 kts | 294° |
| 2026-05-06 09:41 | 43.28429 | 24.44331 | 38011 ft | 418 kts | 294° |
| 2026-05-06 09:42 | 43.30638 | 24.36699 | 38018 ft | 418 kts | 294° |
| 2026-05-06 09:42 | 43.32724 | 24.29474 | 38011 ft | 418 kts | 294° |
| 2026-05-06 09:43 | 43.34862 | 24.22044 | 38018 ft | 418 kts | 294° |
| 2026-05-06 09:43 | 43.36981 | 24.14660 | 37998 ft | 418 kts | 294° |
| 2026-05-06 09:44 | 43.39107 | 24.07235 | 38010 ft | 417 kts | 294° |
| 2026-05-06 09:44 | 43.41252 | 23.99880 | 38012 ft | 416 kts | 295° |
| 2026-05-06 09:45 | 43.43571 | 23.92657 | 38017 ft | 415 kts | 296° |
| 2026-05-06 09:45 | 43.45911 | 23.85447 | 38017 ft | 415 kts | 296° |
| 2026-05-06 09:46 | 43.48239 | 23.78185 | 38014 ft | 414 kts | 296° |
| 2026-05-06 09:46 | 43.50544 | 23.70930 | 38014 ft | 413 kts | 295° |
| 2026-05-06 09:47 | 43.52834 | 23.63684 | 38012 ft | 412 kts | 295° |
| 2026-05-06 09:47 | 43.55100 | 23.56493 | 38016 ft | 411 kts | 295° |
| 2026-05-06 09:48 | 43.57373 | 23.49263 | 38011 ft | 410 kts | 295° |
| 2026-05-06 09:48 | 43.59632 | 23.42056 | 38016 ft | 409 kts | 295° |
| 2026-05-06 09:49 | 43.61879 | 23.34867 | 38013 ft | 408 kts | 295° |
| 2026-05-06 09:49 | 43.64103 | 23.27735 | 38016 ft | 407 kts | 295° |
| 2026-05-06 09:50 | 43.66334 | 23.20560 | 38006 ft | 406 kts | 294° |
| 2026-05-06 09:50 | 43.68555 | 23.13396 | 38016 ft | 406 kts | 294° |
| 2026-05-06 09:51 | 43.70770 | 23.06230 | 38011 ft | 405 kts | 294° |
| 2026-05-06 09:51 | 43.72944 | 22.99180 | 38014 ft | 405 kts | 294° |
| 2026-05-06 09:52 | 43.75150 | 22.92007 | 38014 ft | 406 kts | 294° |
| 2026-05-06 09:52 | 43.77304 | 22.84983 | 38017 ft | 406 kts | 294° |
| 2026-05-06 09:53 | 43.79507 | 22.77779 | 38016 ft | 407 kts | 294° |
| 2026-05-06 09:53 | 43.81696 | 22.70603 | 38015 ft | 408 kts | 294° |
| 2026-05-06 09:54 | 43.83902 | 22.63349 | 38017 ft | 409 kts | 294° |
| 2026-05-06 09:54 | 43.86107 | 22.56078 | 38000 ft | 410 kts | 293° |
| 2026-05-06 09:55 | 43.88313 | 22.48782 | 38010 ft | 411 kts | 293° |
| 2026-05-06 09:55 | 43.90546 | 22.41479 | 38011 ft | 412 kts | 296° |
| 2026-05-06 09:56 | 43.93715 | 22.34961 | 38030 ft | 412 kts | 310° |
| 2026-05-06 09:56 | 43.97477 | 22.28944 | 38022 ft | 413 kts | 310° |
| 2026-05-06 09:57 | 44.01230 | 22.22930 | 38013 ft | 413 kts | 310° |
| 2026-05-06 09:57 | 44.04967 | 22.16889 | 38011 ft | 412 kts | 310° |
| 2026-05-06 09:58 | 44.08664 | 22.10876 | 38017 ft | 411 kts | 310° |
| 2026-05-06 09:58 | 44.12373 | 22.04824 | 38011 ft | 411 kts | 310° |
| 2026-05-06 09:59 | 44.18791 | 21.94319 | 38018 ft | 409 kts | 309° |
| 2026-05-06 09:59 | 44.26157 | 21.82215 | 38026 ft | 409 kts | 309° |
| 2026-05-06 10:00 | 44.33445 | 21.70192 | 38020 ft | 408 kts | 309° |
| 2026-05-06 10:00 | 44.40761 | 21.58068 | 38019 ft | 408 kts | 308° |
| 2026-05-06 10:01 | 44.48083 | 21.45882 | 38008 ft | 410 kts | 308° |
| 2026-05-06 10:01 | 44.55413 | 21.33632 | 38020 ft | 410 kts | 308° |
| 2026-05-06 10:02 | 44.62696 | 21.21407 | 37999 ft | 412 kts | 308° |
| 2026-05-06 10:02 | 44.70032 | 21.09041 | 38010 ft | 412 kts | 308° |
| 2026-05-06 10:03 | 44.77283 | 20.96765 | 38008 ft | 413 kts | 308° |
| 2026-05-06 10:03 | 44.84573 | 20.84367 | 38009 ft | 414 kts | 307° |
| 2026-05-06 10:04 | 44.91908 | 20.71840 | 38009 ft | 415 kts | 307° |
| 2026-05-06 10:04 | 44.99245 | 20.59254 | 38009 ft | 415 kts | 307° |
| 2026-05-06 10:05 | 45.06565 | 20.46640 | 38007 ft | 415 kts | 307° |
| 2026-05-06 10:05 | 45.13882 | 20.33976 | 38010 ft | 416 kts | 306° |
| 2026-05-06 10:06 | 45.21141 | 20.21354 | 38002 ft | 416 kts | 306° |
| 2026-05-06 10:06 | 45.28429 | 20.08628 | 37989 ft | 415 kts | 306° |
| 2026-05-06 10:07 | 45.35608 | 19.96032 | 37992 ft | 415 kts | 306° |
| 2026-05-06 10:07 | 45.42851 | 19.83269 | 37981 ft | 414 kts | 305° |
| 2026-05-06 10:08 | 45.50027 | 19.70567 | 37979 ft | 414 kts | 305° |
| 2026-05-06 10:08 | 45.56255 | 19.59495 | 37980 ft | 413 kts | 304° |
| 2026-05-06 10:09 | 45.59846 | 19.53090 | 37978 ft | 413 kts | 304° |
| 2026-05-06 10:09 | 45.63433 | 19.46680 | 37977 ft | 413 kts | 304° |
| 2026-05-06 10:10 | 45.66987 | 19.40314 | 37976 ft | 412 kts | 304° |
| 2026-05-06 10:10 | 45.70561 | 19.33896 | 37975 ft | 412 kts | 304° |
| 2026-05-06 10:11 | 45.74131 | 19.27471 | 37984 ft | 412 kts | 304° |
| 2026-05-06 10:11 | 45.77672 | 19.21084 | 37968 ft | 412 kts | 304° |
| 2026-05-06 10:12 | 45.81235 | 19.14643 | 37962 ft | 412 kts | 304° |
| 2026-05-06 10:12 | 45.84795 | 19.08192 | 37970 ft | 413 kts | 304° |
| 2026-05-06 10:13 | 45.88354 | 19.01727 | 37966 ft | 413 kts | 304° |
| 2026-05-06 10:13 | 45.91874 | 18.95321 | 37961 ft | 414 kts | 304° |
| 2026-05-06 10:14 | 45.95064 | 18.88567 | 37980 ft | 410 kts | 295° |
| 2026-05-06 10:14 | 45.97862 | 18.81400 | 37963 ft | 412 kts | 295° |
| 2026-05-06 10:15 | 46.00646 | 18.74208 | 37961 ft | 413 kts | 295° |
| 2026-05-06 10:15 | 46.03470 | 18.66988 | 37959 ft | 415 kts | 295° |
| 2026-05-06 10:16 | 46.06294 | 18.59803 | 37967 ft | 416 kts | 295° |
| 2026-05-06 10:16 | 46.09145 | 18.52544 | 37955 ft | 417 kts | 295° |
| 2026-05-06 10:17 | 46.12000 | 18.45256 | 37958 ft | 418 kts | 295° |
| 2026-05-06 10:17 | 46.14858 | 18.37942 | 37958 ft | 419 kts | 295° |
| 2026-05-06 10:18 | 46.17699 | 18.30649 | 37961 ft | 420 kts | 295° |
| 2026-05-06 10:18 | 46.20556 | 18.23296 | 37975 ft | 420 kts | 295° |
| 2026-05-06 10:19 | 46.23414 | 18.15923 | 37963 ft | 421 kts | 294° |
| 2026-05-06 10:19 | 46.26271 | 18.08529 | 37956 ft | 422 kts | 294° |
| 2026-05-06 10:20 | 46.29109 | 18.01164 | 37945 ft | 422 kts | 294° |
| 2026-05-06 10:20 | 46.31924 | 17.93844 | 37941 ft | 423 kts | 294° |
| 2026-05-06 10:21 | 46.34777 | 17.86402 | 37945 ft | 423 kts | 294° |
| 2026-05-06 10:21 | 46.37630 | 17.78938 | 37951 ft | 424 kts | 294° |
| 2026-05-06 10:22 | 46.40461 | 17.71511 | 37942 ft | 425 kts | 294° |
| 2026-05-06 10:22 | 46.43312 | 17.64012 | 37941 ft | 425 kts | 294° |
| 2026-05-06 10:23 | 46.46164 | 17.56491 | 37937 ft | 426 kts | 294° |
| 2026-05-06 10:23 | 46.49016 | 17.48949 | 37933 ft | 427 kts | 294° |
| 2026-05-06 10:24 | 46.51851 | 17.41428 | 37923 ft | 428 kts | 294° |
| 2026-05-06 10:24 | 46.54708 | 17.33830 | 37917 ft | 429 kts | 293° |
| 2026-05-06 10:25 | 46.57566 | 17.26206 | 37917 ft | 430 kts | 293° |
| 2026-05-06 10:25 | 46.60430 | 17.18547 | 37923 ft | 431 kts | 293° |
| 2026-05-06 10:26 | 46.63269 | 17.10931 | 37915 ft | 432 kts | 294° |
| 2026-05-06 10:26 | 46.66127 | 17.03245 | 37913 ft | 431 kts | 293° |
| 2026-05-06 10:27 | 46.68947 | 16.95639 | 37913 ft | 431 kts | 293° |
| 2026-05-06 10:27 | 46.71788 | 16.87951 | 37908 ft | 431 kts | 293° |
| 2026-05-06 10:28 | 46.74601 | 16.80319 | 37903 ft | 430 kts | 294° |
| 2026-05-06 10:28 | 46.77427 | 16.72630 | 37898 ft | 430 kts | 294° |
| 2026-05-06 10:29 | 46.81676 | 16.61194 | 37900 ft | 432 kts | 297° |
| 2026-05-06 10:29 | 46.85406 | 16.53183 | 37897 ft | 433 kts | 300° |
| 2026-05-06 10:30 | 46.92219 | 16.38840 | 37892 ft | 432 kts | 300° |
| 2026-05-06 10:30 | 46.98962 | 16.24314 | 37878 ft | 431 kts | 300° |
| 2026-05-06 10:31 | 47.04298 | 16.08844 | 37867 ft | 425 kts | 290° |
| 2026-05-06 10:31 | 47.09219 | 15.93241 | 37875 ft | 425 kts | 291° |
| 2026-05-06 10:32 | 47.14204 | 15.77609 | 37746 ft | 429 kts | 291° |
| 2026-05-06 10:32 | 47.16734 | 15.69644 | 36608 ft | 429 kts | 290° |
| 2026-05-06 10:32 | 47.18913 | 15.62773 | 35653 ft | 426 kts | 290° |
| 2026-05-06 10:33 | 47.21253 | 15.55367 | 34586 ft | 422 kts | 290° |
| 2026-05-06 10:33 | 47.23682 | 15.47659 | 33779 ft | 410 kts | 290° |
| 2026-05-06 10:33 | 47.26041 | 15.40149 | 32856 ft | 400 kts | 289° |
| 2026-05-06 10:33 | 47.28344 | 15.32788 | 32022 ft | 390 kts | 289° |
| 2026-05-06 10:34 | 47.30554 | 15.25698 | 31243 ft | 382 kts | 289° |
| 2026-05-06 10:34 | 47.32753 | 15.18628 | 30454 ft | 377 kts | 289° |
| 2026-05-06 10:34 | 47.34420 | 15.13250 | 29824 ft | 374 kts | 289° |
| 2026-05-06 10:34 | 47.35495 | 15.09785 | 29457 ft | 369 kts | 288° |
| 2026-05-06 10:35 | 47.36563 | 15.06331 | 29026 ft | 373 kts | 288° |
| 2026-05-06 10:35 | 47.37652 | 15.02793 | 28597 ft | 385 kts | 288° |
| 2026-05-06 10:35 | 47.38753 | 14.99257 | 28208 ft | 388 kts | 290° |
| 2026-05-06 10:35 | 47.39940 | 14.95715 | 27878 ft | 382 kts | 291° |
| 2026-05-06 10:36 | 47.41125 | 14.92290 | 27476 ft | 378 kts | 291° |
| 2026-05-06 10:36 | 47.42323 | 14.88852 | 27037 ft | 375 kts | 291° |
| 2026-05-06 10:36 | 47.43509 | 14.85441 | 26653 ft | 372 kts | 291° |
| 2026-05-06 10:36 | 47.44681 | 14.82044 | 26239 ft | 370 kts | 291° |
| 2026-05-06 10:37 | 47.45840 | 14.78670 | 25826 ft | 367 kts | 291° |
| 2026-05-06 10:37 | 47.46989 | 14.75309 | 25433 ft | 365 kts | 291° |
| 2026-05-06 10:37 | 47.48129 | 14.71964 | 25049 ft | 364 kts | 290° |
| 2026-05-06 10:37 | 47.49262 | 14.68630 | 24629 ft | 362 kts | 290° |
| 2026-05-06 10:38 | 47.50370 | 14.65363 | 24231 ft | 358 kts | 290° |
| 2026-05-06 10:38 | 47.51483 | 14.62083 | 23857 ft | 355 kts | 290° |
| 2026-05-06 10:38 | 47.52583 | 14.58831 | 23456 ft | 353 kts | 290° |
| 2026-05-06 10:38 | 47.53680 | 14.55590 | 22988 ft | 351 kts | 290° |
| 2026-05-06 10:39 | 47.54764 | 14.52379 | 22599 ft | 349 kts | 290° |
| 2026-05-06 10:39 | 47.55848 | 14.49161 | 22155 ft | 347 kts | 290° |
| 2026-05-06 10:39 | 47.56919 | 14.45982 | 21788 ft | 344 kts | 290° |
| 2026-05-06 10:39 | 47.57968 | 14.42861 | 21397 ft | 342 kts | 290° |
| 2026-05-06 10:40 | 47.59023 | 14.39718 | 21025 ft | 340 kts | 290° |
| 2026-05-06 10:40 | 47.60074 | 14.36583 | 20664 ft | 339 kts | 290° |
| 2026-05-06 10:40 | 47.61120 | 14.33466 | 20287 ft | 337 kts | 290° |
| 2026-05-06 10:40 | 47.62162 | 14.30353 | 19895 ft | 336 kts | 290° |
| 2026-05-06 10:41 | 47.63196 | 14.27257 | 19536 ft | 335 kts | 290° |
| 2026-05-06 10:41 | 47.64226 | 14.24174 | 19148 ft | 333 kts | 290° |
| 2026-05-06 10:41 | 47.65249 | 14.21105 | 18789 ft | 330 kts | 290° |
| 2026-05-06 10:41 | 47.66260 | 14.18067 | 18428 ft | 326 kts | 291° |
| 2026-05-06 10:42 | 47.67250 | 14.15097 | 18056 ft | 325 kts | 291° |
| 2026-05-06 10:42 | 47.68250 | 14.12092 | 17651 ft | 325 kts | 291° |
| 2026-05-06 10:42 | 47.69243 | 14.09095 | 17232 ft | 322 kts | 291° |
| 2026-05-06 10:42 | 47.70225 | 14.06131 | 16869 ft | 318 kts | 291° |
| 2026-05-06 10:43 | 47.71199 | 14.03187 | 16527 ft | 317 kts | 291° |
| 2026-05-06 10:43 | 47.72171 | 14.00254 | 16128 ft | 315 kts | 291° |
| 2026-05-06 10:43 | 47.73116 | 13.97411 | 15830 ft | 315 kts | 290° |
| 2026-05-06 10:44 | 47.74961 | 13.91546 | 15016 ft | 314 kts | 285° |
| 2026-05-06 10:44 | 47.75724 | 13.88504 | 14621 ft | 314 kts | 284° |
| 2026-05-06 10:44 | 47.76464 | 13.85456 | 14257 ft | 314 kts | 284° |
| 2026-05-06 10:44 | 47.77209 | 13.82410 | 13895 ft | 313 kts | 284° |
| 2026-05-06 10:45 | 47.77964 | 13.79370 | 13550 ft | 313 kts | 285° |
| 2026-05-06 10:45 | 47.78726 | 13.76333 | 13114 ft | 313 kts | 285° |
| 2026-05-06 10:45 | 47.79486 | 13.73318 | 12753 ft | 311 kts | 285° |
| 2026-05-06 10:45 | 47.80232 | 13.70359 | 12399 ft | 309 kts | 285° |
| 2026-05-06 10:46 | 47.80984 | 13.67369 | 12025 ft | 308 kts | 285° |
| 2026-05-06 10:46 | 47.81731 | 13.64400 | 11641 ft | 304 kts | 286° |
| 2026-05-06 10:46 | 47.82463 | 13.61507 | 11402 ft | 296 kts | 286° |
| 2026-05-06 10:46 | 47.83183 | 13.58618 | 10991 ft | 298 kts | 286° |
| 2026-05-06 10:47 | 47.83901 | 13.55732 | 10636 ft | 296 kts | 286° |
| 2026-05-06 10:47 | 47.84615 | 13.52859 | 10292 ft | 296 kts | 286° |
| 2026-05-06 10:47 | 47.85324 | 13.50019 | 10140 ft | 288 kts | 286° |
| 2026-05-06 10:47 | 47.86013 | 13.47261 | 10035 ft | 280 kts | 287° |
| 2026-05-06 10:48 | 47.86666 | 13.44644 | 10024 ft | 267 kts | 286° |
| 2026-05-06 10:48 | 47.87302 | 13.42087 | 9888 ft | 261 kts | 286° |
| 2026-05-06 10:48 | 47.87931 | 13.39551 | 9626 ft | 260 kts | 286° |
| 2026-05-06 10:48 | 47.88555 | 13.37029 | 9345 ft | 258 kts | 286° |
| 2026-05-06 10:49 | 47.89174 | 13.34523 | 9052 ft | 258 kts | 286° |
| 2026-05-06 10:49 | 47.89792 | 13.32021 | 8783 ft | 257 kts | 286° |
| 2026-05-06 10:49 | 47.90409 | 13.29523 | 8506 ft | 256 kts | 287° |
| 2026-05-06 10:49 | 47.91026 | 13.27027 | 8235 ft | 256 kts | 287° |
| 2026-05-06 10:50 | 47.91633 | 13.24566 | 7967 ft | 256 kts | 287° |
| 2026-05-06 10:50 | 47.92247 | 13.22070 | 7696 ft | 257 kts | 287° |
| 2026-05-06 10:50 | 47.92862 | 13.19568 | 7421 ft | 257 kts | 287° |
| 2026-05-06 10:50 | 47.93477 | 13.17067 | 7155 ft | 258 kts | 287° |
| 2026-05-06 10:51 | 47.94092 | 13.14558 | 6865 ft | 257 kts | 287° |
| 2026-05-06 10:51 | 47.94706 | 13.12054 | 6603 ft | 256 kts | 287° |
| 2026-05-06 10:51 | 47.95318 | 13.09554 | 6344 ft | 258 kts | 287° |
| 2026-05-06 10:51 | 47.95931 | 13.07046 | 6152 ft | 255 kts | 287° |
| 2026-05-06 10:52 | 47.96528 | 13.04603 | 6016 ft | 249 kts | 288° |
| 2026-05-06 10:52 | 47.97104 | 13.02244 | 5898 ft | 242 kts | 287° |
| 2026-05-06 10:52 | 47.97666 | 12.99942 | 5806 ft | 235 kts | 287° |
| 2026-05-06 10:52 | 47.98205 | 12.97732 | 5715 ft | 224 kts | 288° |
| 2026-05-06 10:53 | 47.98725 | 12.95607 | 5596 ft | 214 kts | 288° |
| 2026-05-06 10:53 | 47.99208 | 12.93525 | 5376 ft | 210 kts | 281° |
| 2026-05-06 10:53 | 47.99128 | 12.91451 | 5160 ft | 197 kts | 237° |
| 2026-05-06 10:53 | 47.98127 | 12.90215 | 5025 ft | 187 kts | 188° |
| 2026-05-06 10:54 | 47.96875 | 12.90298 | 4859 ft | 186 kts | 170° |
| 2026-05-06 10:54 | 47.95586 | 12.90567 | 4610 ft | 187 kts | 164° |
| 2026-05-06 10:54 | 47.94356 | 12.91078 | 4387 ft | 181 kts | 160° |
| 2026-05-06 10:54 | 47.93171 | 12.91705 | 4160 ft | 179 kts | 154° |
| 2026-05-06 10:55 | 47.92026 | 12.92433 | 3966 ft | 180 kts | 153° |
| 2026-05-06 10:55 | 47.90871 | 12.93160 | 3789 ft | 183 kts | 155° |
| 2026-05-06 10:55 | 47.89653 | 12.93857 | 3439 ft | 190 kts | 156° |
| 2026-05-06 10:55 | 47.88465 | 12.94608 | 3231 ft | 187 kts | 152° |
| 2026-05-06 10:56 | 47.87277 | 12.95422 | 2967 ft | 189 kts | 154° |
| 2026-05-06 10:56 | 47.86065 | 12.96153 | 2752 ft | 187 kts | 155° |
| 2026-05-06 10:56 | 47.84866 | 12.96903 | 2511 ft | 185 kts | 154° |
| 2026-05-06 10:56 | 47.83722 | 12.97647 | 2448 ft | 178 kts | 154° |
| 2026-05-06 10:57 | 47.82603 | 12.98355 | 2369 ft | 172 kts | 155° |
| 2026-05-06 10:57 | 47.81542 | 12.99085 | 2326 ft | 164 kts | 144° |
| 2026-05-06 10:57 | 47.80770 | 13.00249 | 2305 ft | 157 kts | 124° |
| 2026-05-06 10:57 | 47.80136 | 13.01562 | 2280 ft | 156 kts | 124° |
| 2026-05-06 10:58 | 47.79551 | 13.02896 | 2225 ft | 154 kts | 122° |
| 2026-05-06 10:58 | 47.78987 | 13.04246 | 2214 ft | 155 kts | 122° |
| 2026-05-06 10:58 | 47.78412 | 13.05613 | 2346 ft | 156 kts | 122° |
| 2026-05-06 10:58 | 47.77787 | 13.06863 | 2388 ft | 146 kts | 139° |
| 2026-05-06 10:59 | 47.76879 | 13.07387 | 2355 ft | 139 kts | 180° |
| 2026-05-06 10:59 | 47.76010 | 13.06778 | 2307 ft | 148 kts | 222° |
| 2026-05-06 10:59 | 47.75538 | 13.05416 | 2338 ft | 156 kts | 259° |
| 2026-05-06 10:59 | 47.75631 | 13.03846 | 2300 ft | 160 kts | 289° |
| 2026-05-06 11:00 | 47.76240 | 13.02478 | 2029 ft | 160 kts | 318° |
| 2026-05-06 11:00 | 47.77211 | 13.01693 | 1690 ft | 158 kts | 339° |
| 2026-05-06 11:00 | 47.78221 | 13.01096 | 1467 ft | 157 kts | 338° |
| 2026-05-06 11:00 | 47.79189 | 13.00488 | 1417 ft | 139 kts | 337° |
| 2026-05-06 11:01 | 47.79909 | 13.00032 | 1417 ft | 58 kts | 337° |
| 2026-05-06 11:01 | 47.80128 | 12.99894 | 1415 ft | 25 kts | 337° |
| 2026-05-06 11:01 | 47.80258 | 12.99752 | 1414 ft | 23 kts | 291° |